Terminal Aerodrome Forecast
Issued by NWS

Home | Current Version | Previous Version | Text Only | Print | Product List | Glossary On
Versions: 1 2 3 4 5 6 7 8 9 10 11 12 13 14 15 16 17 18 19
000
FTUS44 KCRP 301726
TAFALI
TAF
KALI 301726Z 3018/0118 16012KT P6SM VCTS SCT025CB BKN040
      TEMPO 3018/3021 17028G38KT 2SM TSRA BR BKN025CB OVC040
     FM302100 15014KT P6SM VCTS SCT030CB OVC120
      TEMPO 3021/3023 VRB20G30KT 4SM SHRA BR BKN025
     FM010100 14007KT P6SM FEW025 BKN120
     FM010900 VRB05KT 4SM BR SCT015
     FM011300 16014KT P6SM VCSH SCT050=

USA.gov is the U.S. government's official web portal to all federal, state and local government web resources and services.